createdAt,value
2022-09-28T00:01:14.803Z,12.43
2022-09-28T00:03:42.009Z,14.35
2022-09-28T00:06:11.386Z,11.63
2022-09-28T00:08:38.542Z,11.27
2022-09-28T00:11:12.342Z,13.07
2022-09-28T00:13:40.368Z,11.20
2022-09-28T00:16:10.515Z,11.18
2022-09-28T00:18:37.631Z,9.18
2022-09-28T00:21:19.100Z,10.73
2022-09-28T00:24:04.762Z,11.65
2022-09-28T00:26:33.371Z,9.15
2022-09-28T00:29:02.074Z,7.73
2022-09-28T00:31:33.524Z,7.80
2022-09-28T00:34:07.703Z,9.30
2022-09-28T00:36:35.143Z,6.63
2022-09-28T00:39:09.225Z,10.23
2022-09-28T00:41:36.310Z,7.15
2022-09-28T00:44:28.405Z,8.57
2022-09-28T00:47:21.726Z,6.07
2022-09-28T00:49:51.466Z,9.57
2022-09-28T00:52:53.314Z,6.88
2022-09-28T00:55:39.004Z,5.20
2022-09-28T00:58:10.334Z,6.65
2022-09-28T01:00:40.897Z,6.60
2022-09-28T01:03:09.643Z,5.88
2022-09-28T01:05:39.611Z,8.65
2022-09-28T01:08:09.176Z,7.93
2022-09-28T01:10:35.911Z,7.55
2022-09-28T01:13:02.755Z,5.60
2022-09-28T01:15:31.241Z,6.32
2022-09-28T01:18:03.736Z,8.77
2022-09-28T01:20:42.669Z,8.02
2022-09-28T01:23:13.440Z,7.25
2022-09-28T01:25:43.027Z,8.45
2022-09-28T01:28:14.662Z,6.57
2022-09-28T01:30:46.227Z,9.15
2022-09-28T01:33:22.464Z,8.07
2022-09-28T01:35:57.672Z,9.95
2022-09-28T01:38:30.898Z,9.55
2022-09-28T01:41:00.503Z,8.02
2022-09-28T01:46:00.704Z,5.03
2022-09-28T01:49:11.630Z,6.15
2022-09-28T01:51:44.994Z,6.97
2022-09-28T01:54:22.027Z,6.45
2022-09-28T01:56:55.049Z,6.95
2022-09-28T01:59:34.607Z,6.80
2022-09-28T02:02:12.342Z,8.73
2022-09-28T02:04:51.285Z,8.93
2022-09-28T02:07:32.267Z,6.43
2022-09-28T02:10:19.998Z,6.53
2022-09-28T02:12:51.344Z,7.00
2022-09-28T02:15:23.194Z,4.93
2022-09-28T02:17:50.650Z,6.63
2022-09-28T02:20:17.608Z,5.60
2022-09-28T02:22:56.353Z,6.80
2022-09-28T02:25:40.707Z,6.32
2022-09-28T02:28:12.218Z,6.28
2022-09-28T02:30:40.637Z,5.13
2022-09-28T02:33:38.398Z,3.63
2022-09-28T02:36:05.761Z,4.00
2022-09-28T02:38:32.739Z,4.70
2022-09-28T02:41:30.159Z,5.30
2022-09-28T02:44:12.028Z,5.28
2022-09-28T02:46:52.529Z,6.47
2022-09-28T02:49:38.726Z,5.57
2022-09-28T02:52:05.414Z,4.90
2022-09-28T02:54:57.757Z,5.72
2022-09-28T02:57:44.816Z,4.68
2022-09-28T03:00:19.970Z,4.93
2022-09-28T03:03:24.187Z,6.72
2022-09-28T03:06:15.020Z,5.70
2022-09-28T03:08:53.362Z,9.18
2022-09-28T03:11:32.735Z,8.45
2022-09-28T03:14:00.307Z,6.10
2022-09-28T03:16:28.343Z,5.47
2022-09-28T03:18:55.164Z,7.82
2022-09-28T03:21:21.959Z,6.43
2022-09-28T03:23:48.952Z,9.85
2022-09-28T03:26:16.911Z,9.02
2022-09-28T03:28:43.658Z,7.35
2022-09-28T03:31:10.669Z,5.80
2022-09-28T03:33:37.558Z,7.32
2022-09-28T03:36:04.755Z,12.35
2022-09-28T03:38:31.780Z,8.80
2022-09-28T03:41:00.281Z,8.18
2022-09-28T03:43:28.358Z,8.93
2022-09-28T03:45:57.101Z,8.32
2022-09-28T03:48:35.499Z,9.13
2022-09-28T03:51:05.568Z,7.88
2022-09-28T03:53:33.696Z,9.45
2022-09-28T03:56:08.933Z,8.93
2022-09-28T03:58:35.886Z,10.32
2022-09-28T04:01:04.923Z,7.80
2022-09-28T04:03:32.439Z,10.68
2022-09-28T04:05:59.912Z,9.13
2022-09-28T04:08:26.836Z,11.55
2022-09-28T04:10:59.410Z,8.60
2022-09-28T04:13:27.657Z,9.65
2022-09-28T04:15:56.265Z,8.65
2022-09-28T04:18:24.067Z,12.32
2022-09-28T04:21:09.029Z,11.77
2022-09-28T04:23:37.552Z,10.25
2022-09-28T04:26:06.810Z,12.63
2022-09-28T04:28:53.057Z,9.57
2022-09-28T04:31:22.617Z,9.68
2022-09-28T04:33:49.739Z,10.35
2022-09-28T04:36:18.009Z,10.13
2022-09-28T04:38:53.504Z,9.85
2022-09-28T04:41:22.518Z,9.88
2022-09-28T04:43:50.326Z,10.10
2022-09-28T04:46:17.212Z,10.30
2022-09-28T04:48:44.267Z,13.60
2022-09-28T04:51:11.718Z,8.52
2022-09-28T04:53:38.547Z,9.38
2022-09-28T04:56:10.257Z,8.65
2022-09-28T04:58:37.879Z,10.00
2022-09-28T05:01:10.560Z,8.77
2022-09-28T05:03:37.970Z,9.93
2022-09-28T05:06:07.026Z,8.40
2022-09-28T05:08:35.377Z,10.68
2022-09-28T05:11:07.236Z,9.13
2022-09-28T05:13:41.739Z,8.70
2022-09-28T05:16:10.153Z,12.77
2022-09-28T05:18:37.348Z,9.18
2022-09-28T05:21:09.318Z,11.30
2022-09-28T05:23:36.109Z,11.05
2022-09-28T05:26:03.101Z,5.68
2022-09-28T05:28:31.855Z,4.38
2022-09-28T05:31:00.200Z,2.90
2022-09-28T05:33:28.296Z,3.53
2022-09-28T05:35:59.014Z,3.55
2022-09-28T05:38:28.493Z,4.00
2022-09-28T05:40:55.390Z,3.63
2022-09-28T05:43:22.681Z,4.93
2022-09-28T05:45:55.059Z,4.13
2022-09-28T05:48:23.125Z,3.40
2022-09-28T05:50:53.427Z,4.13
2022-09-28T05:53:20.376Z,4.13
2022-09-28T05:55:47.228Z,3.13
2022-09-28T05:58:14.605Z,3.65
2022-09-28T06:00:41.435Z,4.50
2022-09-28T06:03:11.787Z,3.28
2022-09-28T06:05:39.780Z,5.03
2022-09-28T06:08:08.610Z,3.42
2022-09-28T06:10:35.497Z,2.38
2022-09-28T06:13:03.080Z,2.35
2022-09-28T06:15:31.821Z,2.42
2022-09-28T06:18:10.953Z,3.05
2022-09-28T06:20:41.275Z,2.55
2022-09-28T06:23:12.211Z,2.33
2022-09-28T06:25:39.530Z,3.20
2022-09-28T06:28:07.659Z,4.07
2022-09-28T06:30:38.202Z,3.30
2022-09-28T06:33:08.412Z,4.05
2022-09-28T06:35:35.341Z,5.40
2022-09-28T06:38:02.213Z,5.20
2022-09-28T06:40:29.415Z,4.72
2022-09-28T06:43:10.002Z,4.88
2022-09-28T06:45:38.258Z,3.58
2022-09-28T06:48:05.979Z,4.30
2022-09-28T06:50:38.997Z,5.05
2022-09-28T06:53:09.508Z,3.58
2022-09-28T06:55:40.135Z,3.10
2022-09-28T06:58:11.071Z,3.80
2022-09-28T07:00:39.803Z,3.35
2022-09-28T07:03:10.516Z,3.38
2022-09-28T07:05:42.434Z,2.97
2022-09-28T07:08:09.307Z,3.05
2022-09-28T07:10:36.344Z,6.20
2022-09-28T07:13:05.585Z,2.95
2022-09-28T07:15:33.097Z,5.35
2022-09-28T07:18:05.826Z,3.00
2022-09-28T07:20:49.342Z,2.45
2022-09-28T07:23:20.116Z,2.75
2022-09-28T07:25:49.633Z,2.65
2022-09-28T07:30:44.949Z,4.18
2022-09-28T07:33:15.089Z,3.42
2022-09-28T07:35:43.026Z,2.85
2022-09-28T07:38:11.000Z,2.85
2022-09-28T07:40:56.610Z,2.33
2022-09-28T07:43:23.564Z,2.13
2022-09-28T07:45:52.688Z,3.97
2022-09-28T07:48:20.399Z,1.98
2022-09-28T07:50:50.288Z,2.42
2022-09-28T07:53:21.857Z,2.20
2022-09-28T07:55:56.440Z,3.70
2022-09-28T07:58:23.516Z,2.47
2022-09-28T08:00:50.706Z,2.95
2022-09-28T08:03:19.355Z,4.55
2022-09-28T08:05:47.514Z,2.92
2022-09-28T08:08:15.077Z,2.28
2022-09-28T08:10:46.920Z,2.65
2022-09-28T08:13:16.421Z,2.58
2022-09-28T08:15:43.274Z,4.38
2022-09-28T08:18:10.564Z,2.97
2022-09-28T08:20:56.286Z,1.67
2022-09-28T08:23:23.690Z,2.70
2022-09-28T08:25:54.979Z,2.95
2022-09-28T08:28:23.227Z,6.05
2022-09-28T08:30:50.908Z,5.72
2022-09-28T08:33:20.416Z,3.33
2022-09-28T08:35:47.562Z,1.95
2022-09-28T08:38:14.758Z,2.47
2022-09-28T08:40:57.816Z,3.47
2022-09-28T08:43:52.298Z,5.88
2022-09-28T08:46:26.954Z,2.55
2022-09-28T08:49:24.056Z,3.28
2022-09-28T08:52:03.368Z,6.82
2022-09-28T08:54:37.316Z,3.38
2022-09-28T08:57:22.509Z,2.65
2022-09-28T08:59:58.524Z,4.30
2022-09-28T09:02:39.334Z,1.55
2022-09-28T09:05:13.853Z,3.53
2022-09-28T09:08:15.490Z,1.98
2022-09-28T09:11:22.749Z,1.90
2022-09-28T09:14:00.301Z,1.45
2022-09-28T09:17:00.633Z,2.22
2022-09-28T09:19:41.141Z,4.72
2022-09-28T09:22:37.644Z,1.50
2022-09-28T09:25:20.646Z,1.30
2022-09-28T09:28:02.463Z,3.20
2022-09-28T09:30:48.981Z,1.20
2022-09-28T09:33:43.412Z,2.10
2022-09-28T09:36:36.908Z,1.45
2022-09-28T09:39:25.427Z,1.10
2022-09-28T09:42:17.912Z,3.33
2022-09-28T09:44:58.102Z,1.38
2022-09-28T09:47:35.822Z,1.10
2022-09-28T09:50:19.721Z,1.10
2022-09-28T09:52:55.781Z,0.77
2022-09-28T09:55:30.268Z,0.93
2022-09-28T09:58:11.052Z,1.17
2022-09-28T10:00:43.353Z,0.88
2022-09-28T10:03:30.006Z,0.80
2022-09-28T10:06:02.532Z,2.25
2022-09-28T10:08:34.369Z,1.42
2022-09-28T10:11:19.178Z,2.28
2022-09-28T10:13:49.365Z,2.78
2022-09-28T10:16:19.407Z,0.93
2022-09-28T10:18:46.454Z,0.98
2022-09-28T10:21:15.098Z,3.38
2022-09-28T10:23:42.404Z,1.35
2022-09-28T10:26:25.237Z,1.08
2022-09-28T10:28:58.146Z,0.75
2022-09-28T10:31:34.665Z,0.68
2022-09-28T10:34:02.357Z,0.68
2022-09-28T10:36:29.791Z,0.93
2022-09-28T10:38:57.979Z,1.02
2022-09-28T10:41:27.629Z,1.25
2022-09-28T10:44:06.503Z,0.68
2022-09-28T10:46:35.381Z,1.27
2022-09-28T10:49:14.290Z,0.68
2022-09-28T10:54:21.034Z,0.80
2022-09-28T10:56:49.914Z,0.80
2022-09-28T10:59:29.632Z,0.75
2022-09-28T11:02:04.848Z,0.98
2022-09-28T11:04:40.098Z,0.60
2022-09-28T11:07:18.347Z,1.52
2022-09-28T11:09:48.952Z,1.52
2022-09-28T11:12:20.472Z,0.95
2022-09-28T11:14:52.819Z,0.60
2022-09-28T11:17:30.632Z,2.25
2022-09-28T11:20:21.502Z,0.73
2022-09-28T11:22:56.074Z,0.50
2022-09-28T11:25:27.146Z,0.80
2022-09-28T11:27:54.091Z,0.60
2022-09-28T11:30:29.353Z,0.55
2022-09-28T11:33:10.699Z,0.65
2022-09-28T11:35:51.907Z,0.63
2022-09-28T11:38:18.854Z,0.60
2022-09-28T11:40:58.690Z,2.17
2022-09-28T11:43:46.951Z,3.00
2022-09-28T11:46:41.302Z,0.60
2022-09-28T11:49:26.256Z,0.65
2022-09-28T11:51:57.004Z,0.50
2022-09-28T11:54:33.773Z,0.50
2022-09-28T11:57:04.202Z,0.90
2022-09-28T11:59:45.072Z,0.40
2022-09-28T12:02:23.627Z,0.60
2022-09-28T12:05:02.379Z,0.68
2022-09-28T12:07:37.647Z,0.70
2022-09-28T12:10:25.721Z,0.40
2022-09-28T12:13:27.581Z,0.93
2022-09-28T12:16:45.291Z,0.60
2022-09-28T12:18:56.375Z,0.82
2022-09-28T12:21:45.627Z,0.52
2022-09-28T12:27:15.516Z,0.85
2022-09-28T12:30:00.331Z,0.77
2022-09-28T12:32:36.227Z,0.85
2022-09-28T12:35:10.811Z,2.72
2022-09-28T12:38:17.602Z,1.17
2022-09-28T12:41:09.331Z,1.52
2022-09-28T12:43:45.303Z,3.17
2022-09-28T12:46:37.246Z,0.47
2022-09-28T12:52:38.458Z,1.00
2022-09-28T12:55:23.578Z,3.10
2022-09-28T12:57:59.596Z,0.68
2022-09-28T13:00:38.047Z,0.70
2022-09-28T13:03:46.383Z,7.63
2022-09-28T13:06:42.547Z,6.30
2022-09-28T13:09:35.139Z,0.60
2022-09-28T13:12:19.261Z,1.80
2022-09-28T13:15:18.874Z,1.23
2022-09-28T13:17:48.780Z,0.80
2022-09-28T13:20:24.481Z,1.73
2022-09-28T13:23:11.711Z,4.18
2022-09-28T13:25:44.772Z,1.52
2022-09-28T13:28:15.597Z,0.88
2022-09-28T13:30:44.504Z,1.27
2022-09-28T13:33:38.541Z,1.15
2022-09-28T13:36:27.913Z,3.25
2022-09-28T13:38:57.303Z,1.48
2022-09-28T13:41:31.754Z,5.38
2022-09-28T13:44:23.885Z,1.77
2022-09-28T13:47:10.015Z,2.63
2022-09-28T13:49:48.764Z,1.35
2022-09-28T13:52:36.050Z,2.17
2022-09-28T13:55:14.740Z,1.55
2022-09-28T13:57:54.223Z,9.02
2022-09-28T14:03:24.367Z,3.47
2022-09-28T14:06:00.772Z,1.98
2022-09-28T14:08:45.494Z,0.93
2022-09-28T14:11:42.050Z,2.30
2022-09-28T14:14:11.404Z,1.70
2022-09-28T14:16:40.291Z,2.33
2022-09-28T14:19:27.731Z,6.60
2022-09-28T14:22:23.815Z,2.45
2022-09-28T14:24:59.897Z,6.00
2022-09-28T14:27:40.226Z,5.43
2022-09-28T14:30:12.863Z,4.90
2022-09-28T14:32:43.240Z,4.75
2022-09-28T14:35:41.732Z,10.15
2022-09-28T14:38:39.303Z,7.43
2022-09-28T14:41:27.150Z,3.10
2022-09-28T14:43:58.696Z,1.58
2022-09-28T14:46:25.524Z,1.63
2022-09-28T14:49:01.798Z,2.15
2022-09-28T14:51:33.972Z,7.45
2022-09-28T14:54:12.976Z,2.42
2022-09-28T14:59:24.930Z,3.97
2022-09-28T15:02:02.617Z,2.20
2022-09-28T15:04:30.943Z,2.35
2022-09-28T15:06:58.216Z,1.83
2022-09-28T15:09:36.589Z,6.55
2022-09-28T15:12:23.448Z,1.60
2022-09-28T15:14:57.745Z,1.30
2022-09-28T15:17:29.428Z,2.97
2022-09-28T15:20:23.292Z,2.58
2022-09-28T15:22:53.435Z,2.30
2022-09-28T15:25:22.479Z,2.40
2022-09-28T15:27:55.443Z,2.70
2022-09-28T15:30:34.827Z,1.42
2022-09-28T15:33:23.045Z,2.75
2022-09-28T15:36:01.863Z,1.40
2022-09-28T15:38:29.377Z,2.20
2022-09-28T15:40:57.505Z,1.70
2022-09-28T15:43:32.964Z,2.42
2022-09-28T15:46:21.530Z,6.47
2022-09-28T15:48:59.188Z,1.70
2022-09-28T15:51:28.399Z,1.67
2022-09-28T15:54:01.394Z,3.35
2022-09-28T15:56:29.642Z,11.50
2022-09-28T15:59:11.567Z,6.05
2022-09-28T16:01:39.883Z,12.23
2022-09-28T16:04:36.582Z,9.93
2022-09-28T16:07:12.560Z,12.00
2022-09-28T16:09:59.786Z,9.10
2022-09-28T16:12:40.950Z,8.80
2022-09-28T16:15:23.455Z,6.43
2022-09-28T16:17:56.925Z,7.43
2022-09-28T16:20:29.586Z,5.72
2022-09-28T16:23:03.558Z,5.65
2022-09-28T16:25:30.486Z,9.95
2022-09-28T16:27:57.604Z,13.95
2022-09-28T16:30:27.389Z,22.20
2022-09-28T16:32:58.452Z,39.83
2022-09-28T16:35:30.147Z,69.13
2022-09-28T16:38:16.546Z,48.10
2022-09-28T16:40:48.058Z,40.70
2022-09-28T16:43:27.163Z,28.02
2022-09-28T16:46:00.200Z,24.92
2022-09-28T16:48:32.031Z,25.40
2022-09-28T16:50:59.579Z,13.75
2022-09-28T16:53:45.398Z,22.02
2022-09-28T16:56:13.261Z,12.80
2022-09-28T16:58:40.106Z,11.50
2022-09-28T17:01:10.078Z,19.42
2022-09-28T17:03:37.303Z,23.15
2022-09-28T17:06:06.297Z,23.48
2022-09-28T17:08:35.572Z,29.25
2022-09-28T17:11:14.930Z,38.33
2022-09-28T17:13:45.258Z,21.35
2022-09-28T17:16:12.243Z,24.83
2022-09-28T17:18:40.099Z,16.05
2022-09-28T17:21:12.312Z,21.60
2022-09-28T17:23:39.339Z,14.32
2022-09-28T17:26:06.541Z,8.55
2022-09-28T17:28:35.795Z,6.78
2022-09-28T17:33:30.940Z,5.07
2022-09-28T17:36:01.411Z,5.53
2022-09-28T17:38:28.689Z,5.03
2022-09-28T17:40:55.648Z,5.07
2022-09-28T17:43:22.601Z,2.55
2022-09-28T17:45:50.776Z,5.40
2022-09-28T17:48:21.849Z,3.55
2022-09-28T17:50:48.935Z,4.07
2022-09-28T17:53:17.231Z,2.47
2022-09-28T17:55:44.065Z,2.90
2022-09-28T17:58:22.087Z,8.82
2022-09-28T18:00:51.125Z,4.47
2022-09-28T18:03:25.242Z,3.95
2022-09-28T18:06:07.101Z,4.78
2022-09-28T18:08:34.448Z,4.03
2022-09-28T18:11:04.482Z,5.47
2022-09-28T18:13:31.422Z,4.65
2022-09-28T18:15:58.540Z,7.47
2022-09-28T18:18:25.915Z,4.38
2022-09-28T18:20:52.953Z,3.72
2022-09-28T18:23:20.244Z,4.82
2022-09-28T18:25:47.489Z,4.00
2022-09-28T18:28:14.571Z,8.65
2022-09-28T18:30:44.358Z,5.65
2022-09-28T18:33:13.625Z,3.33
2022-09-28T18:35:41.133Z,5.82
2022-09-28T18:38:08.122Z,4.93
2022-09-28T18:40:36.015Z,3.70
2022-09-28T18:43:03.765Z,4.90
2022-09-28T18:45:31.324Z,2.35
2022-09-28T18:47:59.675Z,3.45
2022-09-28T18:50:26.651Z,4.97
2022-09-28T18:52:53.518Z,7.47
2022-09-28T18:55:20.566Z,4.70
2022-09-28T18:57:47.604Z,4.53
2022-09-28T19:00:15.281Z,4.50
2022-09-28T19:02:42.851Z,4.60
2022-09-28T19:05:09.912Z,3.40
2022-09-28T19:07:36.780Z,3.78
2022-09-28T19:10:04.394Z,3.58
2022-09-28T19:12:32.571Z,4.25
2022-09-28T19:14:59.836Z,3.78
2022-09-28T19:17:26.874Z,3.38
2022-09-28T19:19:53.699Z,2.92
2022-09-28T19:22:20.445Z,2.40
2022-09-28T19:24:47.495Z,12.15
2022-09-28T19:27:14.247Z,4.03
2022-09-28T19:29:41.012Z,5.65
2022-09-28T19:32:07.972Z,3.67
2022-09-28T19:34:34.842Z,2.47
2022-09-28T19:37:03.908Z,3.03
2022-09-28T19:39:32.032Z,2.10
2022-09-28T19:41:59.896Z,2.85
2022-09-28T19:44:28.853Z,1.88
2022-09-28T19:46:59.647Z,1.75
2022-09-28T19:49:27.873Z,3.60
2022-09-28T19:52:11.987Z,0.98
2022-09-28T19:54:41.234Z,4.35
2022-09-28T20:09:28.908Z,3.33
2022-09-28T20:11:56.255Z,2.35
2022-09-28T20:14:24.658Z,1.13
2022-09-28T20:16:55.021Z,1.88
2022-09-28T20:19:23.312Z,2.35
2022-09-28T20:21:50.698Z,3.25
2022-09-28T20:24:18.214Z,2.15
2022-09-28T20:26:45.965Z,2.28
2022-09-28T20:29:13.065Z,2.65
2022-09-28T20:31:40.119Z,1.90
2022-09-28T20:34:07.586Z,1.73
2022-09-28T20:36:34.797Z,3.58
2022-09-28T20:39:02.626Z,1.33
2022-09-28T20:41:36.769Z,1.73
2022-09-28T20:44:06.308Z,1.05
2022-09-28T20:46:36.051Z,1.48
2022-09-28T20:49:04.021Z,1.95
2022-09-28T20:51:31.674Z,3.13
2022-09-28T20:53:59.734Z,1.10
2022-09-28T20:56:37.785Z,1.67
2022-09-28T20:59:07.927Z,2.80
2022-09-28T21:01:35.420Z,2.13
2022-09-28T21:04:04.786Z,2.22
2022-09-28T21:06:35.196Z,1.38
2022-09-28T21:09:02.159Z,1.02
2022-09-28T21:11:29.926Z,0.93
2022-09-28T21:14:00.586Z,1.15
2022-09-28T21:16:32.691Z,1.60
2022-09-28T21:18:59.872Z,4.35
2022-09-28T21:21:26.913Z,3.42
2022-09-28T21:23:55.032Z,1.85
2022-09-28T21:26:27.029Z,1.40
2022-09-28T21:28:59.354Z,2.03
2022-09-28T21:31:29.592Z,1.83
2022-09-28T21:33:57.703Z,1.83
2022-09-28T21:36:25.140Z,1.08
2022-09-28T21:38:53.548Z,1.15
2022-09-28T21:41:20.340Z,1.73
2022-09-28T21:43:47.095Z,1.58
2022-09-28T21:46:14.208Z,2.65
2022-09-28T21:48:41.268Z,0.80
2022-09-28T21:51:11.180Z,4.22
2022-09-28T21:53:38.593Z,1.20
2022-09-28T21:56:09.332Z,1.38
2022-09-28T21:58:36.454Z,0.68
2022-09-28T22:01:14.727Z,2.60
2022-09-28T22:03:44.048Z,0.65
2022-09-28T22:06:11.878Z,1.23
2022-09-28T22:08:39.243Z,1.45
2022-09-28T22:11:08.097Z,0.95
2022-09-28T22:13:57.675Z,0.77
2022-09-28T22:16:27.273Z,1.63
2022-09-28T22:18:54.488Z,2.17
2022-09-28T22:21:23.783Z,4.13
2022-09-28T22:23:51.313Z,3.65
2022-09-28T22:26:25.969Z,1.00
2022-09-28T22:28:55.205Z,1.25
2022-09-28T22:31:26.058Z,2.25
2022-09-28T22:33:53.529Z,1.63
2022-09-28T22:36:20.425Z,1.60
2022-09-28T22:38:49.335Z,1.33
2022-09-28T22:41:18.782Z,2.05
2022-09-28T22:43:45.551Z,0.88
2022-09-28T22:46:17.901Z,1.27
2022-09-28T22:48:53.478Z,1.52
2022-09-28T22:51:21.544Z,2.72
2022-09-28T22:53:48.436Z,2.33
2022-09-28T22:56:18.687Z,1.05
2022-09-28T22:58:46.930Z,1.75
2022-09-28T23:01:26.311Z,1.05
2022-09-28T23:03:54.510Z,0.82
2022-09-28T23:06:25.009Z,2.80
2022-09-28T23:08:52.913Z,3.83
2022-09-28T23:11:20.320Z,2.33
2022-09-28T23:13:51.486Z,1.75
2022-09-28T23:16:19.001Z,1.40
2022-09-28T23:18:46.212Z,1.48
2022-09-28T23:21:18.174Z,1.45
2022-09-28T23:23:46.213Z,0.80
2022-09-28T23:26:16.034Z,0.85
2022-09-28T23:28:44.107Z,3.83
2022-09-28T23:31:25.405Z,1.35
2022-09-28T23:33:56.737Z,0.60
2022-09-28T23:36:23.687Z,2.53
2022-09-28T23:38:50.520Z,2.67
2022-09-28T23:41:17.554Z,1.08
2022-09-28T23:43:44.390Z,1.25
2022-09-28T23:46:11.224Z,1.00
2022-09-28T23:48:38.782Z,0.95
2022-09-28T23:51:05.729Z,1.63
2022-09-28T23:53:32.643Z,2.05
2022-09-28T23:55:59.985Z,2.17
2022-09-28T23:58:27.604Z,1.48
